Time;durP1;ratioP1;P1;durP2;ratioP2;P2;SDS_P1;SDS_P2;PMS_P1;PMS_P2;Temp;Humidity;BMP_temperature;BMP_pressure;BME280_temperature;BME280_humidity;BME280_pressure;Samples;Min_cycle;Max_cycle;Signal;HPM_P1;HPM_P2
2022/03/24 00:00:20;;;;;;;42.10;37.88;;;;;;;;;;5051777;28;20040;-87
2022/03/24 00:02:46;;;;;;;43.40;39.15;;;;;;;;;;5049023;28;20373;-90
2022/03/24 00:05:12;;;;;;;41.75;37.75;;;;;;;;;;5051013;28;20614;-91
2022/03/24 00:07:39;;;;;;;41.95;37.92;;;;;;;;;;5062749;28;20123;-91
2022/03/24 00:10:05;;;;;;;43.45;39.25;;;;;;;;;;5048066;28;20499;-88
2022/03/24 00:12:32;;;;;;;45.05;40.63;;;;;;;;;;5051115;28;20052;-90
2022/03/24 00:14:58;;;;;;;43.97;39.58;;;;;;;;;;5065089;28;20503;-92
2022/03/24 00:17:24;;;;;;;43.35;39.08;;;;;;;;;;5053853;28;20045;-90
2022/03/24 00:19:50;;;;;;;44.15;39.78;;;;;;;;;;5055841;28;20072;-88
2022/03/24 00:22:16;;;;;;;44.95;40.65;;;;;;;;;;5078855;28;20264;-88
2022/03/24 00:24:42;;;;;;;45.20;40.80;;;;;;;;;;5094220;28;20025;-90
2022/03/24 00:27:09;;;;;;;44.42;40.03;;;;;;;;;;5075182;28;20155;-91
2022/03/24 00:29:35;;;;;;;46.53;41.80;;;;;;;;;;5058178;28;20499;-89
2022/03/24 00:32:01;;;;;;;45.28;40.78;;;;;;;;;;5070803;28;20041;-92
2022/03/24 00:34:27;;;;;;;48.72;43.92;;;;;;;;;;5067137;28;20460;-90
2022/03/24 00:36:53;;;;;;;48.83;43.80;;;;;;;;;;5052484;28;20056;-90
2022/03/24 00:39:19;;;;;;;50.03;45.05;;;;;;;;;;5063817;28;20048;-91
2022/03/24 00:41:45;;;;;;;49.90;45.00;;;;;;;;;;5070998;28;20044;-91
2022/03/24 00:44:11;;;;;;;50.53;45.53;;;;;;;;;;5048048;28;20473;-90
2022/03/24 00:46:37;;;;;;;50.92;45.67;;;;;;;;;;5058513;28;20075;-90
2022/03/24 00:49:04;;;;;;;48.97;44.13;;;;;;;;;;5050394;28;20052;-92
2022/03/24 00:51:30;;;;;;;51.05;45.83;;;;;;;;;;5056828;28;20484;-91
2022/03/24 00:53:55;;;;;;;50.72;45.60;;;;;;;;;;5051536;28;20182;-91
2022/03/24 00:56:23;;;;;;;49.50;44.40;;;;;;;;;;5061047;28;20040;-90
2022/03/24 00:58:49;;;;;;;49.13;44.22;;;;;;;;;;5075199;28;20072;-89
2022/03/24 01:01:17;;;;;;;51.63;46.22;;;;;;;;;;5084415;28;20048;-90
2022/03/24 01:03:43;;;;;;;50.45;45.28;;;;;;;;;;5046933;28;20084;-90
2022/03/24 01:06:10;;;;;;;48.58;43.45;;;;;;;;;;5038136;28;20044;-90
2022/03/24 01:08:36;;;;;;;49.38;44.15;;;;;;;;;;5056323;28;20058;-89
2022/03/24 01:11:05;;;;;;;47.15;42.55;;;;;;;;;;5059561;28;20040;-88
2022/03/24 01:13:31;;;;;;;50.30;45.10;;;;;;;;;;5066206;28;20065;-91
2022/03/24 01:15:57;;;;;;;51.55;46.17;;;;;;;;;;5063661;28;20045;-90
2022/03/24 01:18:23;;;;;;;49.35;44.38;;;;;;;;;;5037716;28;20044;-90
2022/03/24 01:20:50;;;;;;;49.75;44.58;;;;;;;;;;5068353;28;20116;-90
2022/03/24 01:23:16;;;;;;;51.05;45.72;;;;;;;;;;5066113;28;20458;-89
2022/03/24 01:25:42;;;;;;;50.80;45.60;;;;;;;;;;5065851;28;20400;-89
2022/03/24 01:28:09;;;;;;;52.03;46.60;;;;;;;;;;5051535;28;20053;-89
2022/03/24 01:30:38;;;;;;;52.00;46.60;;;;;;;;;;5044465;28;20560;-88
2022/03/24 01:33:04;;;;;;;50.53;45.53;;;;;;;;;;5071670;28;20495;-90
2022/03/24 01:35:31;;;;;;;52.10;46.67;;;;;;;;;;5063998;28;20051;-89
2022/03/24 01:37:57;;;;;;;51.05;45.80;;;;;;;;;;5065901;28;20064;-89
2022/03/24 01:40:24;;;;;;;52.00;46.42;;;;;;;;;;5069113;28;20637;-89
2022/03/24 01:42:50;;;;;;;51.85;46.28;;;;;;;;;;5048714;28;20447;-90
2022/03/24 01:45:16;;;;;;;53.88;48.17;;;;;;;;;;5063679;28;20041;-89
2022/03/24 01:47:42;;;;;;;53.42;47.92;;;;;;;;;;5082964;28;20079;-90
2022/03/24 01:50:09;;;;;;;53.88;48.35;;;;;;;;;;5050565;28;20067;-91
2022/03/24 01:52:35;;;;;;;52.08;46.60;;;;;;;;;;5049702;28;20055;-90
2022/03/24 01:55:03;;;;;;;55.05;49.13;;;;;;;;;;5061776;28;20132;-90
2022/03/24 01:57:30;;;;;;;53.72;48.13;;;;;;;;;;5062263;28;20048;-91
2022/03/24 01:59:57;;;;;;;55.08;49.33;;;;;;;;;;5061495;28;20041;-91
2022/03/24 02:02:23;;;;;;;54.45;48.28;;;;;;;;;;5061425;28;20052;-90
2022/03/24 02:04:49;;;;;;;55.53;49.53;;;;;;;;;;5075761;28;20093;-91
2022/03/24 02:07:16;;;;;;;54.88;49.10;;;;;;;;;;5059733;28;20049;-90
2022/03/24 02:09:42;;;;;;;56.03;49.92;;;;;;;;;;5094115;28;20044;-91
2022/03/24 02:12:12;;;;;;;55.47;49.40;;;;;;;;;;5083074;28;20049;-90
2022/03/24 02:14:38;;;;;;;54.70;48.80;;;;;;;;;;5069406;28;20043;-90
2022/03/24 02:17:07;;;;;;;55.70;49.75;;;;;;;;;;5071865;28;20064;-90
2022/03/24 02:19:36;;;;;;;53.00;47.28;;;;;;;;;;5051372;28;20488;-89
2022/03/24 02:22:20;;;;;;;55.58;49.72;;;;;;;;;;5071214;28;20060;-89
2022/03/24 02:24:48;;;;;;;57.92;51.13;;;;;;;;;;5060549;28;20103;-89
2022/03/24 02:27:14;;;;;;;57.63;50.60;;;;;;;;;;5064198;28;20041;-88
2022/03/24 02:29:40;;;;;;;56.83;50.67;;;;;;;;;;5065892;28;20070;-88
2022/03/24 02:32:11;;;;;;;57.58;51.47;;;;;;;;;;5083486;28;20021;-88
2022/03/24 02:34:37;;;;;;;55.75;49.33;;;;;;;;;;5071383;28;20045;-88
2022/03/24 02:37:08;;;;;;;55.42;49.58;;;;;;;;;;5070266;28;20056;-88
2022/03/24 02:39:34;;;;;;;57.15;51.05;;;;;;;;;;5081833;28;20055;-89
2022/03/24 02:42:01;;;;;;;56.55;49.55;;;;;;;;;;5083278;28;20068;-89
2022/03/24 02:44:28;;;;;;;56.92;50.80;;;;;;;;;;5070418;28;20778;-88
2022/03/24 02:46:55;;;;;;;57.95;51.63;;;;;;;;;;5064130;28;20037;-86
2022/03/24 02:49:23;;;;;;;56.45;49.90;;;;;;;;;;5070886;28;20024;-88
2022/03/24 02:51:53;;;;;;;54.97;49.00;;;;;;;;;;5072413;28;20036;-89
2022/03/24 02:54:19;;;;;;;58.13;50.78;;;;;;;;;;5076794;28;20101;-89
2022/03/24 02:56:46;;;;;;;57.80;50.90;;;;;;;;;;5048534;28;20091;-89
2022/03/24 02:59:12;;;;;;;56.55;50.45;;;;;;;;;;5067373;28;20045;-88
2022/03/24 03:01:41;;;;;;;56.70;50.10;;;;;;;;;;5046518;28;20106;-88
2022/03/24 03:04:08;;;;;;;55.88;49.85;;;;;;;;;;5062795;28;20496;-89
2022/03/24 03:06:36;;;;;;;55.60;48.65;;;;;;;;;;5066741;28;20032;-89
2022/03/24 03:09:03;;;;;;;56.05;47.45;;;;;;;;;;5049952;28;20476;-88
2022/03/24 03:11:35;;;;;;;57.33;51.03;;;;;;;;;;5044128;28;20654;-89
2022/03/24 03:14:04;;;;;;;58.47;51.35;;;;;;;;;;5070048;28;20128;-89
2022/03/24 03:16:30;;;;;;;56.78;50.55;;;;;;;;;;5064568;28;20119;-89
2022/03/24 03:18:57;;;;;;;57.50;50.88;;;;;;;;;;5068157;28;20027;-90
2022/03/24 03:21:25;;;;;;;55.65;48.83;;;;;;;;;;5058640;28;20051;-89
2022/03/24 03:23:51;;;;;;;57.75;51.00;;;;;;;;;;5060943;28;20056;-88
2022/03/24 03:26:17;;;;;;;57.22;50.78;;;;;;;;;;5066597;28;20399;-88
2022/03/24 03:28:44;;;;;;;56.22;49.55;;;;;;;;;;5065671;28;20060;-88
2022/03/24 03:31:14;;;;;;;57.17;50.42;;;;;;;;;;5046666;28;20110;-89
2022/03/24 03:33:40;;;;;;;57.50;51.38;;;;;;;;;;5045588;28;20101;-88
2022/03/24 03:36:06;;;;;;;54.78;48.85;;;;;;;;;;5048060;28;20052;-89
2022/03/24 03:38:33;;;;;;;55.97;49.13;;;;;;;;;;5064734;28;20041;-88
2022/03/24 03:41:06;;;;;;;56.30;49.72;;;;;;;;;;5070391;28;20040;-87
2022/03/24 03:43:32;;;;;;;58.03;51.70;;;;;;;;;;5070578;28;20387;-89
2022/03/24 03:45:59;;;;;;;57.85;50.58;;;;;;;;;;5063127;28;20040;-90
2022/03/24 03:48:25;;;;;;;56.45;48.88;;;;;;;;;;5066331;28;20041;-88
2022/03/24 03:50:51;;;;;;;54.55;48.65;;;;;;;;;;5062173;28;20037;-89
2022/03/24 03:53:17;;;;;;;57.03;50.83;;;;;;;;;;5075700;28;20049;-89
2022/03/24 03:55:43;;;;;;;57.05;49.95;;;;;;;;;;5050450;28;20478;-88
2022/03/24 03:58:11;;;;;;;58.42;51.75;;;;;;;;;;5054902;28;20079;-88
2022/03/24 04:00:52;;;;;;;59.60;51.20;;;;;;;;;;5048827;28;20460;-87
2022/03/24 04:03:19;;;;;;;55.78;49.58;;;;;;;;;;5070325;28;20036;-88
2022/03/24 04:05:45;;;;;;;57.78;49.60;;;;;;;;;;5061573;28;20144;-89
2022/03/24 04:08:11;;;;;;;58.40;51.13;;;;;;;;;;5053564;28;20037;-89
2022/03/24 04:10:38;;;;;;;56.28;50.15;;;;;;;;;;5032727;28;20036;-88
2022/03/24 04:13:05;;;;;;;56.95;50.70;;;;;;;;;;5048730;28;20091;-88
2022/03/24 04:15:31;;;;;;;57.03;49.72;;;;;;;;;;5044830;28;20053;-89
2022/03/24 04:17:57;;;;;;;55.42;49.55;;;;;;;;;;5062139;28;20050;-88
2022/03/24 04:20:23;;;;;;;57.67;49.20;;;;;;;;;;5043161;28;20385;-88
2022/03/24 04:22:50;;;;;;;57.72;49.63;;;;;;;;;;5075008;28;20439;-88
2022/03/24 04:25:17;;;;;;;60.90;50.80;;;;;;;;;;5040819;28;20049;-88
2022/03/24 04:27:44;;;;;;;57.67;50.25;;;;;;;;;;5048268;28;20033;-88
2022/03/24 04:30:12;;;;;;;55.92;49.55;;;;;;;;;;5067439;28;20036;-88
2022/03/24 04:32:38;;;;;;;54.47;48.08;;;;;;;;;;5046388;28;20040;-87
2022/03/24 04:35:05;;;;;;;55.55;47.67;;;;;;;;;;5063073;28;20590;-89
2022/03/24 04:37:31;;;;;;;58.63;48.80;;;;;;;;;;5052929;28;20396;-89
2022/03/24 04:39:57;;;;;;;56.03;49.05;;;;;;;;;;5062474;28;20033;-89
2022/03/24 04:42:24;;;;;;;56.50;48.33;;;;;;;;;;5067216;28;20443;-88
2022/03/24 04:44:50;;;;;;;55.83;48.55;;;;;;;;;;5067446;28;20123;-88
2022/03/24 04:47:16;;;;;;;59.20;50.42;;;;;;;;;;5056664;28;20045;-88
2022/03/24 04:49:43;;;;;;;56.63;48.28;;;;;;;;;;5079558;28;20044;-89
2022/03/24 04:52:09;;;;;;;59.13;49.20;;;;;;;;;;5070489;28;20097;-89
2022/03/24 04:54:35;;;;;;;55.88;47.75;;;;;;;;;;5065051;28;20049;-88
2022/03/24 04:57:01;;;;;;;57.88;49.50;;;;;;;;;;5086682;28;20027;-88
2022/03/24 04:59:28;;;;;;;56.95;48.20;;;;;;;;;;5074107;28;20031;-88
2022/03/24 05:01:55;;;;;;;57.45;48.53;;;;;;;;;;5063523;28;20048;-89
2022/03/24 05:04:23;;;;;;;54.17;47.83;;;;;;;;;;5042012;28;20149;-89
2022/03/24 05:06:49;;;;;;;58.22;49.00;;;;;;;;;;5047267;28;20047;-89
2022/03/24 05:09:15;;;;;;;61.75;51.38;;;;;;;;;;5039665;28;20721;-88
2022/03/24 05:11:41;;;;;;;59.53;50.15;;;;;;;;;;5049390;28;20131;-88
2022/03/24 05:14:08;;;;;;;57.40;49.75;;;;;;;;;;5046712;28;20049;-88
2022/03/24 05:16:34;;;;;;;57.58;49.80;;;;;;;;;;5065209;28;20082;-89
2022/03/24 05:19:01;;;;;;;56.67;48.03;;;;;;;;;;5065888;28;20213;-88
2022/03/24 05:21:27;;;;;;;58.25;48.42;;;;;;;;;;5060354;28;20041;-87
2022/03/24 05:23:54;;;;;;;57.10;47.80;;;;;;;;;;5068358;28;20959;-88
2022/03/24 05:26:23;;;;;;;56.55;47.90;;;;;;;;;;5071287;28;20097;-88
2022/03/24 05:28:49;;;;;;;58.08;49.13;;;;;;;;;;5080971;28;20044;-88
2022/03/24 05:31:16;;;;;;;59.85;49.28;;;;;;;;;;5046442;28;20041;-88
2022/03/24 05:33:43;;;;;;;59.95;50.10;;;;;;;;;;5037727;28;20057;-89
2022/03/24 05:36:09;;;;;;;58.72;48.60;;;;;;;;;;5067799;28;20559;-90
2022/03/24 05:38:35;;;;;;;56.45;47.38;;;;;;;;;;5068234;28;20044;-88
2022/03/24 05:41:01;;;;;;;58.90;49.22;;;;;;;;;;5071205;28;20041;-88
2022/03/24 05:43:27;;;;;;;56.70;47.63;;;;;;;;;;5061965;28;20571;-87
2022/03/24 05:45:53;;;;;;;54.55;45.38;;;;;;;;;;5057892;28;20425;-89
2022/03/24 05:48:20;;;;;;;59.00;47.38;;;;;;;;;;5071128;28;20045;-88
2022/03/24 05:50:46;;;;;;;58.70;49.03;;;;;;;;;;5071530;28;20048;-89
2022/03/24 05:53:12;;;;;;;58.10;48.00;;;;;;;;;;5061261;28;20049;-88
2022/03/24 05:55:38;;;;;;;57.65;49.10;;;;;;;;;;5065451;28;20051;-88
2022/03/24 05:58:05;;;;;;;57.45;48.10;;;;;;;;;;5070431;28;20040;-88
2022/03/24 06:00:31;;;;;;;56.53;47.45;;;;;;;;;;5058618;28;20037;-87
2022/03/24 06:03:01;;;;;;;55.50;47.58;;;;;;;;;;5073403;28;20123;-88
2022/03/24 06:05:28;;;;;;;65.85;47.47;;;;;;;;;;5043562;28;20033;-88
2022/03/24 06:07:55;;;;;;;54.50;47.15;;;;;;;;;;5063978;28;20278;-87
2022/03/24 06:10:24;;;;;;;57.63;48.40;;;;;;;;;;5086880;28;21578;-86
2022/03/24 06:12:51;;;;;;;57.85;47.05;;;;;;;;;;5061869;28;20040;-87
2022/03/24 06:15:17;;;;;;;59.20;47.50;;;;;;;;;;5081989;28;20072;-92
2022/03/24 06:17:46;;;;;;;59.75;49.35;;;;;;;;;;5078933;28;20025;-87
2022/03/24 06:20:13;;;;;;;61.13;50.17;;;;;;;;;;5091122;28;20055;-89
2022/03/24 06:22:41;;;;;;;58.13;47.55;;;;;;;;;;5067298;28;20504;-88
2022/03/24 06:25:08;;;;;;;59.08;48.67;;;;;;;;;;5061544;28;20445;-90
2022/03/24 06:27:37;;;;;;;59.67;49.30;;;;;;;;;;5066557;28;20059;-88
2022/03/24 06:30:05;;;;;;;61.65;48.20;;;;;;;;;;5073235;28;20067;-93
2022/03/24 06:32:32;;;;;;;60.88;49.45;;;;;;;;;;5045227;28;20516;-91
2022/03/24 06:34:58;;;;;;;62.13;49.25;;;;;;;;;;5053274;28;20578;-90
2022/03/24 06:37:26;;;;;;;60.25;49.65;;;;;;;;;;5058869;28;20091;-87
2022/03/24 06:39:56;;;;;;;59.97;48.95;;;;;;;;;;5071131;28;20089;-89
2022/03/24 06:42:23;;;;;;;57.83;49.17;;;;;;;;;;5067049;28;20045;-86
2022/03/24 06:44:49;;;;;;;56.85;47.90;;;;;;;;;;5049002;28;20045;-89
2022/03/24 06:47:15;;;;;;;57.58;47.65;;;;;;;;;;5050149;28;20463;-89
2022/03/24 06:49:41;;;;;;;57.88;48.25;;;;;;;;;;5061978;28;20124;-88
2022/03/24 06:52:10;;;;;;;58.42;49.08;;;;;;;;;;5082626;28;20067;-87
2022/03/24 06:54:36;;;;;;;56.78;48.40;;;;;;;;;;5066027;28;20051;-88
2022/03/24 06:57:03;;;;;;;58.80;49.45;;;;;;;;;;5071473;28;20454;-88
2022/03/24 06:59:32;;;;;;;58.55;47.25;;;;;;;;;;5054070;28;20072;-89
2022/03/24 07:01:59;;;;;;;59.60;48.47;;;;;;;;;;5070233;28;20428;-89
2022/03/24 07:04:25;;;;;;;61.40;50.75;;;;;;;;;;5036731;28;20032;-90
2022/03/24 07:06:51;;;;;;;56.08;49.28;;;;;;;;;;5048090;28;20065;-88
2022/03/24 07:09:16;;;;;;;59.25;48.97;;;;;;;;;;5054843;28;20073;-89
2022/03/24 07:11:42;;;;;;;57.97;49.47;;;;;;;;;;5055292;28;20073;-89
2022/03/24 07:14:08;;;;;;;59.15;49.65;;;;;;;;;;5053952;28;20045;-90
2022/03/24 07:16:34;;;;;;;58.70;48.88;;;;;;;;;;5072769;28;20051;-90
2022/03/24 07:19:01;;;;;;;58.88;47.85;;;;;;;;;;5096128;28;20047;-89
2022/03/24 07:21:26;;;;;;;58.78;48.53;;;;;;;;;;5075312;28;20048;-91
2022/03/24 07:23:54;;;;;;;54.92;47.53;;;;;;;;;;5045207;28;20052;-89
2022/03/24 07:26:20;;;;;;;58.00;48.20;;;;;;;;;;5050171;28;20507;-89
2022/03/24 07:28:48;;;;;;;55.58;49.03;;;;;;;;;;5033984;28;20037;-90
2022/03/24 07:31:16;;;;;;;62.05;52.20;;;;;;;;;;5053009;28;20056;-90
2022/03/24 07:33:43;;;;;;;58.78;50.15;;;;;;;;;;5059360;28;20048;-90
2022/03/24 07:36:09;;;;;;;66.00;52.60;;;;;;;;;;5055977;28;20049;-89
2022/03/24 07:38:36;;;;;;;59.20;50.67;;;;;;;;;;5052296;28;20034;-90
2022/03/24 07:41:02;;;;;;;62.17;52.25;;;;;;;;;;5045295;28;20127;-89
2022/03/24 07:43:29;;;;;;;58.50;50.83;;;;;;;;;;5051170;28;20040;-91
2022/03/24 07:45:55;;;;;;;57.55;50.10;;;;;;;;;;5050837;28;20052;-91
2022/03/24 07:48:27;;;;;;;60.03;50.55;;;;;;;;;;5052916;28;20128;-90
2022/03/24 07:50:55;;;;;;;60.28;51.67;;;;;;;;;;5041776;28;20299;-90
2022/03/24 07:53:30;;;;;;;63.47;51.90;;;;;;;;;;5051791;28;20038;-90
2022/03/24 07:55:57;;;;;;;59.67;50.47;;;;;;;;;;5052526;28;20056;-90
2022/03/24 07:58:23;;;;;;;56.90;49.30;;;;;;;;;;5046511;28;20045;-87
2022/03/24 08:00:49;;;;;;;61.28;50.22;;;;;;;;;;5054338;28;20048;-87
2022/03/24 08:03:17;;;;;;;61.25;51.45;;;;;;;;;;5045011;28;20099;-87
2022/03/24 08:05:43;;;;;;;57.70;48.78;;;;;;;;;;5052516;28;20124;-87
2022/03/24 08:08:10;;;;;;;59.83;48.22;;;;;;;;;;5052932;28;20082;-87
2022/03/24 08:10:37;;;;;;;54.58;46.17;;;;;;;;;;5044294;28;20052;-87
2022/03/24 08:13:03;;;;;;;54.90;45.38;;;;;;;;;;5053070;28;20033;-87
2022/03/24 08:15:29;;;;;;;47.63;42.45;;;;;;;;;;5062377;28;20053;-87
2022/03/24 08:17:55;;;;;;;47.25;42.10;;;;;;;;;;5059563;28;20124;-87
2022/03/24 08:20:23;;;;;;;49.50;42.13;;;;;;;;;;5048377;28;20076;-88
2022/03/24 08:22:49;;;;;;;49.25;42.08;;;;;;;;;;5063480;28;20156;-88
2022/03/24 08:25:15;;;;;;;45.08;39.55;;;;;;;;;;5074096;28;20086;-87
2022/03/24 08:27:41;;;;;;;42.83;36.45;;;;;;;;;;5057526;28;20598;-87
2022/03/24 08:30:10;;;;;;;40.38;35.97;;;;;;;;;;5073242;28;20040;-88
2022/03/24 08:32:36;;;;;;;39.97;35.60;;;;;;;;;;5046374;28;20032;-86
2022/03/24 08:35:02;;;;;;;36.25;32.35;;;;;;;;;;5053947;28;20099;-87
2022/03/24 08:37:28;;;;;;;34.75;30.75;;;;;;;;;;5072664;28;20045;-86
2022/03/24 08:39:55;;;;;;;38.50;32.97;;;;;;;;;;5070024;28;20073;-86
2022/03/24 08:42:21;;;;;;;35.08;31.30;;;;;;;;;;5054327;28;20045;-87
2022/03/24 08:44:47;;;;;;;35.08;31.33;;;;;;;;;;5046716;28;20037;-87
2022/03/24 08:47:13;;;;;;;34.75;30.25;;;;;;;;;;5054295;28;20040;-88
2022/03/24 08:49:43;;;;;;;33.28;29.25;;;;;;;;;;5069865;28;20497;-88
2022/03/24 08:52:09;;;;;;;33.90;29.73;;;;;;;;;;5054820;28;20041;-88
2022/03/24 08:54:35;;;;;;;35.40;29.13;;;;;;;;;;5053201;28;20056;-87
2022/03/24 08:57:01;;;;;;;33.30;29.63;;;;;;;;;;5049921;28;20044;-87
2022/03/24 08:59:27;;;;;;;34.75;30.73;;;;;;;;;;5059809;28;20048;-87
2022/03/24 09:01:53;;;;;;;32.92;29.35;;;;;;;;;;5059438;28;20063;-88
2022/03/24 09:04:23;;;;;;;35.33;30.98;;;;;;;;;;5071990;28;20047;-88
2022/03/24 09:06:50;;;;;;;37.22;31.08;;;;;;;;;;5049355;28;20048;-88
2022/03/24 09:09:16;;;;;;;34.17;30.48;;;;;;;;;;5056772;28;20060;-87
2022/03/24 09:11:42;;;;;;;35.75;30.02;;;;;;;;;;5054299;28;20044;-88
2022/03/24 09:14:08;;;;;;;34.60;30.17;;;;;;;;;;5048386;28;20041;-89
2022/03/24 09:16:34;;;;;;;33.97;30.27;;;;;;;;;;5052919;28;20076;-88
2022/03/24 09:19:00;;;;;;;32.08;28.08;;;;;;;;;;5055642;28;20043;-89
2022/03/24 09:21:27;;;;;;;31.98;27.02;;;;;;;;;;5051869;28;20144;-87
2022/03/24 09:23:53;;;;;;;28.83;25.63;;;;;;;;;;5052011;28;20098;-87
2022/03/24 09:26:19;;;;;;;30.52;27.05;;;;;;;;;;5052519;28;20127;-87
2022/03/24 09:28:46;;;;;;;32.05;28.60;;;;;;;;;;5066995;28;20044;-89
2022/03/24 09:31:13;;;;;;;32.00;28.55;;;;;;;;;;5053046;28;20045;-87
2022/03/24 09:33:39;;;;;;;42.42;36.33;;;;;;;;;;5072401;28;20093;-88
2022/03/24 09:36:05;;;;;;;45.38;40.20;;;;;;;;;;5071394;28;20040;-88
2022/03/24 09:38:31;;;;;;;48.28;39.28;;;;;;;;;;5069693;28;20043;-88
2022/03/24 09:40:58;;;;;;;43.92;39.30;;;;;;;;;;5071173;28;20056;-88
2022/03/24 09:43:25;;;;;;;46.17;40.95;;;;;;;;;;5063193;28;20048;-87
2022/03/24 09:45:52;;;;;;;45.13;38.83;;;;;;;;;;5086489;28;20045;-89
2022/03/24 09:48:18;;;;;;;41.85;37.38;;;;;;;;;;5052067;28;20040;-88
2022/03/24 09:50:45;;;;;;;38.30;34.28;;;;;;;;;;5065103;28;20059;-88
2022/03/24 09:53:12;;;;;;;37.85;33.13;;;;;;;;;;5075943;28;20483;-88
2022/03/24 09:55:41;;;;;;;36.80;31.98;;;;;;;;;;5071652;28;20036;-88
2022/03/24 09:58:07;;;;;;;35.70;31.95;;;;;;;;;;5072942;28;20472;-88
2022/03/24 10:00:34;;;;;;;37.60;31.30;;;;;;;;;;5068875;28;20035;-86
2022/03/24 10:03:17;;;;;;;33.40;30.02;;;;;;;;;;5071529;28;20102;-89
2022/03/24 10:06:07;;;;;;;35.67;32.08;;;;;;;;;;5072555;28;20060;-88
2022/03/24 10:08:33;;;;;;;35.25;31.38;;;;;;;;;;5054085;28;20530;-87
2022/03/24 10:11:00;;;;;;;41.03;32.08;;;;;;;;;;5066942;28;20048;-89
2022/03/24 10:13:46;;;;;;;36.30;32.40;;;;;;;;;;5056290;28;20101;-85
2022/03/24 10:16:13;;;;;;;34.33;30.70;;;;;;;;;;5072284;28;20051;-89
2022/03/24 10:19:01;;;;;;;33.58;29.90;;;;;;;;;;5068307;28;21832;-88
2022/03/24 10:21:29;;;;;;;37.88;33.88;;;;;;;;;;5071848;28;20140;-87
2022/03/24 10:24:06;;;;;;;;;;;;;;;;;;;;;
2022/03/24 10:26:41;;;;;;;38.08;34.10;;;;;;;;;;5049933;28;20088;-86
2022/03/24 10:29:08;;;;;;;40.55;36.35;;;;;;;;;;5075899;28;20036;-87
2022/03/24 10:31:35;;;;;;;39.33;35.03;;;;;;;;;;5075990;28;20044;-87
2022/03/24 10:34:02;;;;;;;39.30;35.17;;;;;;;;;;5094932;28;20037;-88
2022/03/24 10:36:28;;;;;;;38.08;33.92;;;;;;;;;;5078279;28;20040;-87
2022/03/24 10:38:58;;;;;;;36.22;32.53;;;;;;;;;;5061066;28;20055;-88
2022/03/24 10:41:30;;;;;;;35.63;31.80;;;;;;;;;;5050224;28;20037;-88
2022/03/24 10:43:58;;;;;;;33.10;29.25;;;;;;;;;;5075989;28;20032;-88
2022/03/24 10:46:27;;;;;;;34.97;31.17;;;;;;;;;;5055495;28;20139;-88
2022/03/24 10:48:53;;;;;;;36.25;32.30;;;;;;;;;;5053528;28;20036;-88
2022/03/24 10:51:22;;;;;;;35.83;31.05;;;;;;;;;;5067737;28;20041;-88
2022/03/24 10:53:48;;;;;;;38.65;34.45;;;;;;;;;;5073972;28;20033;-89
2022/03/24 10:56:17;;;;;;;39.65;35.38;;;;;;;;;;5055685;28;20043;-88
2022/03/24 10:58:46;;;;;;;40.42;36.03;;;;;;;;;;5054670;28;20124;-87
2022/03/24 11:01:14;;;;;;;41.83;37.47;;;;;;;;;;5055940;28;20427;-87
2022/03/24 11:03:40;;;;;;;43.63;39.15;;;;;;;;;;5051884;28;20044;-86
2022/03/24 11:06:09;;;;;;;44.70;40.05;;;;;;;;;;5074592;28;20036;-89
2022/03/24 11:09:09;;;;;;;46.33;41.58;;;;;;;;;;5079970;28;20051;-88
2022/03/24 11:11:39;;;;;;;44.95;40.13;;;;;;;;;;5042505;28;20403;-89
2022/03/24 11:14:05;;;;;;;42.58;37.85;;;;;;;;;;5066264;28;20052;-88
2022/03/24 11:16:32;;;;;;;42.63;38.38;;;;;;;;;;5064146;28;20040;-88
2022/03/24 11:19:00;;;;;;;43.60;38.97;;;;;;;;;;5077994;28;20106;-89
2022/03/24 11:21:41;;;;;;;42.97;36.95;;;;;;;;;;5079426;28;20141;-89
2022/03/24 11:24:07;;;;;;;42.28;37.83;;;;;;;;;;5055315;28;20415;-89
2022/03/24 11:26:35;;;;;;;40.17;36.15;;;;;;;;;;5056448;28;20064;-90
2022/03/24 11:29:02;;;;;;;41.40;37.05;;;;;;;;;;5058990;28;20048;-89
2022/03/24 11:31:31;;;;;;;40.63;36.58;;;;;;;;;;5058394;28;20044;-89
2022/03/24 11:34:04;;;;;;;40.63;36.50;;;;;;;;;;5056403;28;20045;-90
2022/03/24 11:36:30;;;;;;;;;;;;;;;;;;5057243;28;20048;-90
2022/03/24 11:39:02;;;;;;;41.08;36.75;;;;;;;;;;5074359;28;19983;-89
2022/03/24 11:41:34;;;;;;;39.70;35.60;;;;;;;;;;5072762;28;20488;-90
2022/03/24 11:44:26;;;;;;;38.42;34.38;;;;;;;;;;5053790;28;20044;-89
2022/03/24 11:46:52;;;;;;;38.75;34.53;;;;;;;;;;5052200;28;20045;-91
2022/03/24 11:49:25;;;;;;;40.20;35.80;;;;;;;;;;5053890;28;20414;-90
2022/03/24 11:52:11;;;;;;;39.33;35.20;;;;;;;;;;5051843;28;20036;-91
2022/03/24 11:54:37;;;;;;;38.70;34.58;;;;;;;;;;5069197;28;20087;-90
2022/03/24 11:57:25;;;;;;;40.75;35.13;;;;;;;;;;5053701;28;20508;-91
2022/03/24 11:59:54;;;;;;;36.63;32.92;;;;;;;;;;5082282;28;20084;-90
2022/03/24 12:02:23;;;;;;;35.60;31.92;;;;;;;;;;5083667;28;20049;-90
2022/03/24 12:04:50;;;;;;;34.33;30.67;;;;;;;;;;5078984;28;20076;-91
2022/03/24 12:07:18;;;;;;;32.47;28.20;;;;;;;;;;5073500;28;20024;-89
2022/03/24 12:09:54;;;;;;;32.83;29.45;;;;;;;;;;5069165;28;20119;-92
2022/03/24 12:12:21;;;;;;;31.85;28.42;;;;;;;;;;5067457;28;20132;-92
2022/03/24 12:14:48;;;;;;;33.05;29.77;;;;;;;;;;5056162;28;20076;-90
2022/03/24 12:17:19;;;;;;;31.70;28.38;;;;;;;;;;5055880;28;20068;-93
2022/03/24 12:19:47;;;;;;;34.35;30.85;;;;;;;;;;5051903;28;20044;-92
2022/03/24 12:22:33;;;;;;;38.65;34.05;;;;;;;;;;5051934;28;20049;-93
2022/03/24 12:24:59;;;;;;;37.15;33.10;;;;;;;;;;5055575;28;20044;-94
2022/03/24 12:27:25;;;;;;;34.88;30.77;;;;;;;;;;5054702;28;20047;-93
2022/03/24 12:30:09;;;;;;;31.88;26.75;;;;;;;;;;5057076;28;20066;-93
2022/03/24 12:32:35;;;;;;;29.38;25.40;;;;;;;;;;5071502;28;20041;-92
2022/03/24 12:35:03;;;;;;;31.80;28.33;;;;;;;;;;5058751;28;20040;-90
2022/03/24 12:37:35;;;;;;;37.28;30.83;;;;;;;;;;5049901;28;20494;-90
2022/03/24 12:40:15;;;;;;;34.13;30.52;;;;;;;;;;5072561;28;20063;-91
2022/03/24 12:42:52;;;;;;;36.22;32.38;;;;;;;;;;5073279;28;20043;-93
2022/03/24 12:45:27;;;;;;;37.38;33.45;;;;;;;;;;5070621;28;20049;-92
2022/03/24 12:47:57;;;;;;;38.28;34.20;;;;;;;;;;5077101;28;20055;-90
2022/03/24 12:50:43;;;;;;;37.30;33.50;;;;;;;;;;5073927;28;20062;-88
2022/03/24 12:53:10;;;;;;;37.03;33.00;;;;;;;;;;5072104;28;20124;-88
2022/03/24 12:55:43;;;;;;;38.78;34.67;;;;;;;;;;5072177;28;20120;-90
2022/03/24 12:58:10;;;;;;;40.67;36.50;;;;;;;;;;5073403;28;20036;-89
2022/03/24 13:00:40;;;;;;;44.65;39.97;;;;;;;;;;5049717;28;20062;-86
2022/03/24 13:03:07;;;;;;;41.65;37.25;;;;;;;;;;5071471;28;20523;-88
2022/03/24 13:05:34;;;;;;;43.03;38.42;;;;;;;;;;5053317;28;20047;-90
2022/03/24 13:08:02;;;;;;;41.85;37.38;;;;;;;;;;5053453;28;20064;-88
2022/03/24 13:10:31;;;;;;;41.60;36.22;;;;;;;;;;5073190;28;20041;-88
2022/03/24 13:13:00;;;;;;;37.92;34.03;;;;;;;;;;5051117;28;20052;-88
2022/03/24 13:15:37;;;;;;;32.63;29.20;;;;;;;;;;5054958;28;20067;-89
2022/03/24 13:18:05;;;;;;;35.58;31.75;;;;;;;;;;5055595;28;20058;-89
2022/03/24 13:20:36;;;;;;;29.48;26.10;;;;;;;;;;5055165;28;20040;-89
2022/03/24 13:23:03;;;;;;;29.60;26.42;;;;;;;;;;5070553;28;20045;-89
2022/03/24 13:25:29;;;;;;;27.65;24.40;;;;;;;;;;5072969;28;20769;-90
2022/03/24 13:27:56;;;;;;;31.38;27.98;;;;;;;;;;5072049;28;20064;-89
2022/03/24 13:30:24;;;;;;;34.97;31.30;;;;;;;;;;5067978;28;20123;-89
2022/03/24 13:32:51;;;;;;;33.33;29.55;;;;;;;;;;5068394;28;20096;-91
2022/03/24 13:35:19;;;;;;;31.90;28.50;;;;;;;;;;5053471;28;20040;-91
2022/03/24 13:37:51;;;;;;;33.65;30.10;;;;;;;;;;5071965;28;20090;-90
2022/03/24 13:40:18;;;;;;;34.63;31.15;;;;;;;;;;5054137;28;20119;-90
2022/03/24 13:42:45;;;;;;;36.58;32.85;;;;;;;;;;5047198;28;20063;-90
2022/03/24 13:45:12;;;;;;;38.00;34.22;;;;;;;;;;5054251;28;20064;-90
2022/03/24 13:47:59;;;;;;;41.10;36.83;;;;;;;;;;5071687;28;20040;-90
2022/03/24 13:50:30;;;;;;;39.47;35.40;;;;;;;;;;5070293;28;20052;-90
2022/03/24 13:52:56;;;;;;;39.53;35.58;;;;;;;;;;5062078;28;20123;-85
2022/03/24 13:55:26;;;;;;;39.15;35.45;;;;;;;;;;5066495;28;20063;-87
2022/03/24 13:57:57;;;;;;;32.88;29.67;;;;;;;;;;5052676;28;20037;-87
2022/03/24 14:00:33;;;;;;;31.58;28.17;;;;;;;;;;5052993;28;20443;-87
2022/03/24 14:03:04;;;;;;;29.13;26.30;;;;;;;;;;5068833;28;20045;-87
2022/03/24 14:05:46;;;;;;;32.22;28.85;;;;;;;;;;5071580;28;20055;-87
2022/03/24 14:08:16;;;;;;;32.45;29.38;;;;;;;;;;5069180;28;20040;-87
2022/03/24 14:10:53;;;;;;;31.05;28.25;;;;;;;;;;5071040;28;20048;-86
2022/03/24 14:13:21;;;;;;;32.38;29.48;;;;;;;;;;5048219;28;20048;-86
2022/03/24 14:15:50;;;;;;;34.35;30.80;;;;;;;;;;5072240;28;20063;-87
2022/03/24 14:18:24;;;;;;;31.92;28.90;;;;;;;;;;5046191;28;20051;-87
2022/03/24 14:20:53;;;;;;;31.25;28.35;;;;;;;;;;5054356;28;20090;-86
2022/03/24 14:23:27;;;;;;;30.90;27.98;;;;;;;;;;5049418;28;20062;-87